createdAt,value
2017-11-21T00:01:48.673Z,18.58
2017-11-21T00:04:15.542Z,20.55
2017-11-21T00:06:41.700Z,22.25
2017-11-21T00:09:09.007Z,21.95
2017-11-21T00:11:35.147Z,22.27
2017-11-21T00:14:01.273Z,25.60
2017-11-21T00:16:27.830Z,22.55
2017-11-21T00:18:53.950Z,26.62
2017-11-21T00:21:20.085Z,24.75
2017-11-21T00:23:46.372Z,20.67
2017-11-21T00:26:12.552Z,20.30
2017-11-21T00:28:38.671Z,19.95
2017-11-21T00:31:04.872Z,18.15
2017-11-21T00:33:30.992Z,14.23
2017-11-21T00:35:57.125Z,12.77
2017-11-21T00:38:23.269Z,14.25
2017-11-21T00:40:49.408Z,19.55
2017-11-21T00:43:15.522Z,15.07
2017-11-21T00:45:41.667Z,14.55
2017-11-21T00:48:07.798Z,11.05
2017-11-21T00:50:34.801Z,12.65
2017-11-21T00:53:01.671Z,14.95
2017-11-21T00:55:27.796Z,16.77
2017-11-21T00:57:54.351Z,15.10
2017-11-21T01:00:20.607Z,17.33
2017-11-21T01:02:46.808Z,16.42
2017-11-21T01:05:13.320Z,16.35
2017-11-21T01:07:39.429Z,17.27
2017-11-21T01:10:06.318Z,18.95
2017-11-21T01:12:32.469Z,13.80
2017-11-21T01:14:58.625Z,13.62
2017-11-21T01:17:24.731Z,15.98
2017-11-21T01:19:50.927Z,16.15
2017-11-21T01:22:17.835Z,17.98
2017-11-21T01:24:43.955Z,17.62
2017-11-21T01:27:10.115Z,18.40
2017-11-21T01:29:36.520Z,20.77
2017-11-21T01:32:02.739Z,24.00
2017-11-21T01:34:30.033Z,21.33
2017-11-21T01:36:56.150Z,26.40
2017-11-21T01:39:23.000Z,29.95
2017-11-21T01:41:49.850Z,29.00
2017-11-21T01:44:16.059Z,30.95
2017-11-21T01:46:42.239Z,30.88
2017-11-21T01:49:09.117Z,35.58
2017-11-21T01:51:35.269Z,32.78
2017-11-21T01:54:01.399Z,32.20
2017-11-21T01:56:27.529Z,35.10
2017-11-21T01:58:53.680Z,35.50
2017-11-21T02:01:19.863Z,30.50
2017-11-21T02:03:47.566Z,28.70
2017-11-21T02:06:14.544Z,25.60
2017-11-21T02:08:40.684Z,25.88
2017-11-21T02:11:06.799Z,26.00
2017-11-21T02:13:33.654Z,28.02
2017-11-21T02:16:00.600Z,26.87
2017-11-21T02:18:26.753Z,24.90
2017-11-21T02:20:53.642Z,27.87
2017-11-21T02:23:19.857Z,27.85
2017-11-21T02:25:46.077Z,26.98
2017-11-21T02:28:12.202Z,29.85
2017-11-21T02:30:38.345Z,28.30
2017-11-21T02:33:04.599Z,31.92
2017-11-21T02:35:31.517Z,33.03
2017-11-21T02:37:57.670Z,33.50
2017-11-21T02:40:28.972Z,30.52
2017-11-21T02:42:55.849Z,30.52
2017-11-21T02:45:22.046Z,27.65
2017-11-21T02:47:48.195Z,34.30
2017-11-21T02:50:15.085Z,32.13
2017-11-21T02:52:41.993Z,26.60
2017-11-21T02:55:08.118Z,27.15
2017-11-21T02:57:34.267Z,22.23
2017-11-21T03:00:00.459Z,25.15
2017-11-21T03:02:26.595Z,18.45
2017-11-21T03:04:52.766Z,18.85
2017-11-21T03:07:18.915Z,17.40
2017-11-21T03:09:45.369Z,17.67
2017-11-21T03:12:11.485Z,15.35
2017-11-21T03:14:37.637Z,16.77
2017-11-21T03:17:03.817Z,17.37
2017-11-21T03:19:31.257Z,15.98
2017-11-21T03:22:09.585Z,19.55
2017-11-21T03:24:47.902Z,20.10
2017-11-21T03:27:14.042Z,18.15
2017-11-21T03:29:40.200Z,15.75
2017-11-21T03:32:07.096Z,22.27
2017-11-21T03:34:33.240Z,25.10
2017-11-21T03:36:59.401Z,24.27
2017-11-21T03:39:25.526Z,29.27
2017-11-21T03:41:51.658Z,28.40
2017-11-21T03:44:17.824Z,28.08
2017-11-21T03:46:44.002Z,31.50
2017-11-21T03:49:10.182Z,30.35
2017-11-21T03:51:36.313Z,34.47
2017-11-21T03:54:02.474Z,35.20
2017-11-21T03:56:28.736Z,34.58
2017-11-21T03:58:55.049Z,34.35
2017-11-21T04:01:21.177Z,33.65
2017-11-21T04:03:47.321Z,39.25
2017-11-21T04:06:13.490Z,39.03
2017-11-21T04:08:39.653Z,39.35
2017-11-21T04:11:06.305Z,38.63
2017-11-21T04:13:32.603Z,42.00
2017-11-21T04:15:59.512Z,41.65
2017-11-21T04:18:26.396Z,42.53
2017-11-21T04:20:52.523Z,39.63
2017-11-21T04:23:18.642Z,42.53
2017-11-21T04:25:44.870Z,44.78
2017-11-21T04:28:11.066Z,47.22
2017-11-21T04:30:37.202Z,43.90
2017-11-21T04:33:04.669Z,43.40
2017-11-21T04:35:30.935Z,37.95
2017-11-21T04:37:57.865Z,41.20
2017-11-21T04:40:23.989Z,40.90
2017-11-21T04:42:50.599Z,43.87
2017-11-21T04:45:17.488Z,41.58
2017-11-21T04:47:43.673Z,44.35
2017-11-21T04:50:09.827Z,47.30
2017-11-21T04:52:36.013Z,43.20
2017-11-21T04:55:02.241Z,34.50
2017-11-21T04:57:28.384Z,30.95
2017-11-21T04:59:54.594Z,27.23
2017-11-21T05:02:20.783Z,26.17
2017-11-21T05:04:46.938Z,19.98
2017-11-21T05:07:13.082Z,16.45
2017-11-21T05:09:39.310Z,15.45
2017-11-21T05:12:05.437Z,12.63
2017-11-21T05:14:31.572Z,12.68
2017-11-21T05:16:57.749Z,9.30
2017-11-21T05:19:23.877Z,9.35
2017-11-21T05:21:50.036Z,9.02
2017-11-21T05:24:16.162Z,9.45
2017-11-21T05:26:42.305Z,7.53
2017-11-21T05:29:08.570Z,7.25
2017-11-21T05:31:34.740Z,8.20
2017-11-21T05:34:09.018Z,8.93
2017-11-21T05:36:41.598Z,9.80
2017-11-21T05:39:07.741Z,9.80
2017-11-21T05:41:33.901Z,11.30
2017-11-21T05:44:00.027Z,18.08
2017-11-21T05:46:28.694Z,17.35
2017-11-21T05:48:55.001Z,20.23
2017-11-21T05:51:21.145Z,21.62
2017-11-21T05:53:48.042Z,25.10
2017-11-21T05:56:14.206Z,23.85
2017-11-21T05:58:41.160Z,30.80
2017-11-21T06:01:08.546Z,28.45
2017-11-21T06:03:34.865Z,33.95
2017-11-21T06:06:01.926Z,34.13
2017-11-21T06:08:28.046Z,38.85
2017-11-21T06:10:54.161Z,34.38
2017-11-21T06:13:20.357Z,38.60
2017-11-21T06:15:46.502Z,35.42
2017-11-21T06:18:22.527Z,34.53
2017-11-21T06:20:50.215Z,38.15
2017-11-21T06:23:16.335Z,42.83
2017-11-21T06:25:42.519Z,48.03
2017-11-21T06:28:09.409Z,40.25
2017-11-21T06:30:36.304Z,39.03
2017-11-21T06:33:03.180Z,37.55
2017-11-21T06:35:29.356Z,40.00
2017-11-21T06:37:56.258Z,41.03
2017-11-21T06:40:22.361Z,39.90
2017-11-21T06:42:49.268Z,37.38
2017-11-21T06:45:15.401Z,38.75
2017-11-21T06:47:41.526Z,40.40
2017-11-21T06:50:07.684Z,42.88
2017-11-21T06:52:33.877Z,39.80
2017-11-21T06:55:00.855Z,38.22
2017-11-21T06:57:27.721Z,36.70
2017-11-21T06:59:53.894Z,34.58
2017-11-21T07:02:20.030Z,38.25
2017-11-21T07:04:46.190Z,39.72
2017-11-21T07:07:12.326Z,38.67
2017-11-21T07:09:38.502Z,37.58
2017-11-21T07:12:04.698Z,37.33
2017-11-21T07:14:30.817Z,36.78
2017-11-21T07:16:56.926Z,31.98
2017-11-21T07:19:23.807Z,35.38
2017-11-21T07:21:49.929Z,34.97
2017-11-21T07:24:16.033Z,35.25
2017-11-21T07:26:42.982Z,35.50
2017-11-21T07:29:09.898Z,34.70
2017-11-21T07:31:36.042Z,41.37
2017-11-21T07:34:02.196Z,33.17
2017-11-21T07:36:28.322Z,31.15
2017-11-21T07:38:54.462Z,32.83
2017-11-21T07:41:29.410Z,28.25
2017-11-21T07:44:07.715Z,25.85
2017-11-21T07:46:37.351Z,28.10
2017-11-21T07:49:03.670Z,27.65
2017-11-21T07:51:30.005Z,26.85
2017-11-21T07:53:56.343Z,25.12
2017-11-21T07:56:22.679Z,25.60
2017-11-21T07:58:48.978Z,27.90
2017-11-21T08:01:15.325Z,23.77
2017-11-21T08:03:41.708Z,25.27
2017-11-21T08:06:08.796Z,23.15
2017-11-21T08:08:35.149Z,20.02
2017-11-21T08:11:02.834Z,18.02
2017-11-21T08:13:29.207Z,19.95
2017-11-21T08:15:55.601Z,18.62
2017-11-21T08:18:21.926Z,20.65
2017-11-21T08:20:48.229Z,17.67
2017-11-21T08:23:14.578Z,24.25
2017-11-21T08:25:41.704Z,19.25
2017-11-21T08:28:08.058Z,22.48
2017-11-21T08:30:34.402Z,16.75
2017-11-21T08:33:00.931Z,18.85
2017-11-21T08:35:27.278Z,16.85
2017-11-21T08:37:55.358Z,15.50
2017-11-21T08:40:21.725Z,16.87
2017-11-21T08:42:48.067Z,17.48
2017-11-21T08:45:14.426Z,15.13
2017-11-21T08:47:40.754Z,12.55
2017-11-21T08:50:07.108Z,12.35
2017-11-21T08:52:33.494Z,13.43
2017-11-21T08:54:59.854Z,10.13
2017-11-21T08:57:26.342Z,9.55
2017-11-21T08:59:52.809Z,7.05
2017-11-21T09:02:19.917Z,6.70
2017-11-21T09:04:46.326Z,6.65
2017-11-21T09:07:13.406Z,5.95
2017-11-21T09:09:39.721Z,4.93
2017-11-21T09:12:06.149Z,3.65
2017-11-21T09:14:32.489Z,4.05
2017-11-21T09:16:58.829Z,2.53
2017-11-21T09:19:25.180Z,3.28
2017-11-21T09:21:51.495Z,4.05
2017-11-21T09:24:17.825Z,2.70
2017-11-21T09:26:44.293Z,3.20
2017-11-21T09:29:10.613Z,2.25
2017-11-21T09:31:36.919Z,3.58
2017-11-21T09:34:03.249Z,2.47
2017-11-21T09:36:29.529Z,3.28
2017-11-21T09:38:56.015Z,1.60
2017-11-21T09:41:22.353Z,1.85
2017-11-21T09:43:54.342Z,2.28
2017-11-21T09:46:20.649Z,1.37
2017-11-21T09:48:46.989Z,1.52
2017-11-21T09:51:13.309Z,3.67
2017-11-21T09:53:39.625Z,2.12
2017-11-21T09:56:05.921Z,1.30
2017-11-21T10:01:04.556Z,1.62
2017-11-21T10:03:30.901Z,1.80
2017-11-21T10:05:57.227Z,1.85
2017-11-21T10:08:24.357Z,2.30
2017-11-21T10:10:50.737Z,2.67
2017-11-21T10:15:48.444Z,2.47
2017-11-21T10:18:14.811Z,2.72
2017-11-21T10:20:41.147Z,3.10
2017-11-21T10:23:08.209Z,2.72
2017-11-21T10:25:34.642Z,3.05
2017-11-21T10:28:01.100Z,2.65
2017-11-21T10:30:27.425Z,3.50
2017-11-21T10:32:56.003Z,4.07
2017-11-21T10:35:22.329Z,5.93
2017-11-21T10:37:48.715Z,3.83
2017-11-21T10:40:15.036Z,3.35
2017-11-21T10:42:41.380Z,3.20
2017-11-21T10:45:07.689Z,3.12
2017-11-21T10:47:34.025Z,3.00
2017-11-21T10:50:00.353Z,3.30
2017-11-21T10:52:33.126Z,3.10
2017-11-21T10:54:59.485Z,3.22
2017-11-21T10:57:25.815Z,3.08
2017-11-21T10:59:52.154Z,3.50
2017-11-21T11:02:19.254Z,3.47
2017-11-21T11:04:45.650Z,3.78
2017-11-21T11:07:12.011Z,3.30
2017-11-21T11:09:38.347Z,4.10
2017-11-21T11:12:11.225Z,4.00
2017-11-21T11:14:38.329Z,4.60
2017-11-21T11:17:04.674Z,5.30
2017-11-21T11:19:31.005Z,4.97
2017-11-21T11:21:57.410Z,5.10
2017-11-21T11:24:23.731Z,5.35
2017-11-21T11:26:54.196Z,5.97
2017-11-21T11:29:20.532Z,6.55
2017-11-21T11:31:47.634Z,11.73
2017-11-21T11:34:14.724Z,7.25
2017-11-21T11:36:41.069Z,7.82
2017-11-21T11:39:08.143Z,8.15
2017-11-21T11:41:34.510Z,8.50
2017-11-21T11:44:03.201Z,11.20
2017-11-21T11:46:30.267Z,9.70
2017-11-21T11:48:56.665Z,9.55
2017-11-21T11:51:23.733Z,11.70
2017-11-21T11:53:50.090Z,8.52
2017-11-21T11:56:16.449Z,9.40
2017-11-21T12:01:15.754Z,11.63
2017-11-21T12:03:42.130Z,10.90
2017-11-21T12:06:08.501Z,11.57
2017-11-21T12:08:34.842Z,13.05
2017-11-21T12:11:01.285Z,11.80
2017-11-21T12:13:27.618Z,12.35
2017-11-21T12:15:58.454Z,11.88
2017-11-21T12:18:25.041Z,12.73
2017-11-21T12:20:51.559Z,13.25
2017-11-21T12:23:17.901Z,11.80
2017-11-21T12:25:44.229Z,11.30
2017-11-21T12:28:10.573Z,12.32
2017-11-21T12:30:36.930Z,16.60
2017-11-21T12:33:03.265Z,11.00
2017-11-21T12:38:03.902Z,11.85
2017-11-21T12:40:30.254Z,13.88
2017-11-21T12:42:56.600Z,11.12
2017-11-21T12:45:22.979Z,12.57
2017-11-21T12:47:50.636Z,11.60
2017-11-21T12:50:18.627Z,11.73
2017-11-21T12:52:51.788Z,10.02
2017-11-21T12:55:18.978Z,12.32
2017-11-21T12:57:45.340Z,12.20
2017-11-21T13:00:11.667Z,12.37
2017-11-21T13:02:37.975Z,13.45
2017-11-21T13:05:04.381Z,10.73
2017-11-21T13:07:30.749Z,9.15
2017-11-21T13:09:59.030Z,9.18
2017-11-21T13:12:26.158Z,9.52
2017-11-21T13:14:52.514Z,9.55
2017-11-21T13:17:18.924Z,8.73
2017-11-21T13:19:46.108Z,9.75
2017-11-21T13:22:12.563Z,9.38
2017-11-21T13:24:38.937Z,10.07
2017-11-21T13:27:11.498Z,8.43
2017-11-21T13:29:40.940Z,7.80
2017-11-21T13:32:07.329Z,8.15
2017-11-21T13:34:35.061Z,9.07
2017-11-21T13:37:01.565Z,6.82
2017-11-21T13:39:27.976Z,6.90
2017-11-21T13:41:55.397Z,8.65
2017-11-21T13:44:28.025Z,8.98
2017-11-21T13:46:55.083Z,8.40
2017-11-21T13:49:22.490Z,9.77
2017-11-21T13:51:48.941Z,10.50
2017-11-21T13:54:15.290Z,10.32
2017-11-21T13:56:45.890Z,10.65
2017-11-21T13:59:12.801Z,9.50
2017-11-21T14:01:38.992Z,8.15
2017-11-21T14:04:05.897Z,13.85
2017-11-21T14:06:32.065Z,9.32
2017-11-21T14:08:58.218Z,10.32
2017-11-21T14:11:24.363Z,10.43
2017-11-21T14:13:53.748Z,10.43
2017-11-21T14:16:20.667Z,10.93
2017-11-21T14:18:47.564Z,11.32
2017-11-21T14:21:13.738Z,10.70
2017-11-21T14:23:39.912Z,11.60
2017-11-21T14:26:06.112Z,8.82
2017-11-21T14:28:33.072Z,13.60
2017-11-21T14:31:02.290Z,12.52
2017-11-21T14:33:28.430Z,11.40
2017-11-21T14:35:54.613Z,11.57
2017-11-21T14:38:20.762Z,11.98
2017-11-21T14:40:47.651Z,9.98
2017-11-21T14:43:13.835Z,12.60
2017-11-21T14:45:40.025Z,11.23
2017-11-21T14:48:11.160Z,11.80
2017-11-21T14:50:37.320Z,11.50
2017-11-21T14:53:03.458Z,10.93
2017-11-21T14:55:30.454Z,12.05
2017-11-21T14:57:56.582Z,11.50
2017-11-21T15:00:23.443Z,15.50
2017-11-21T15:02:49.581Z,13.95
2017-11-21T15:05:15.794Z,13.75
2017-11-21T15:07:45.821Z,14.95
2017-11-21T15:10:11.980Z,15.60
2017-11-21T15:12:38.146Z,16.48
2017-11-21T15:15:04.301Z,16.25
2017-11-21T15:17:30.499Z,17.00
2017-11-21T15:19:56.675Z,18.90
2017-11-21T15:22:23.570Z,20.35
2017-11-21T15:24:49.834Z,23.98
2017-11-21T15:27:15.981Z,29.48
2017-11-21T15:29:42.137Z,20.10
2017-11-21T15:32:08.337Z,19.42
2017-11-21T15:34:34.508Z,20.70
2017-11-21T15:37:00.665Z,22.27
2017-11-21T15:39:27.426Z,19.55
2017-11-21T15:41:53.690Z,18.85
2017-11-21T15:44:19.856Z,26.55
2017-11-21T15:46:46.001Z,22.60
2017-11-21T15:49:12.121Z,22.62
2017-11-21T15:51:38.254Z,20.35
2017-11-21T15:54:04.592Z,21.35
2017-11-21T15:56:30.751Z,20.75
2017-11-21T15:58:56.899Z,23.10
2017-11-21T16:01:23.085Z,19.90
2017-11-21T16:03:50.136Z,21.35
2017-11-21T16:06:17.009Z,21.52
2017-11-21T16:08:43.194Z,19.33
2017-11-21T16:11:10.334Z,23.30
2017-11-21T16:13:36.633Z,23.20
2017-11-21T16:16:03.695Z,26.17
2017-11-21T16:18:31.662Z,23.02
2017-11-21T16:20:58.816Z,22.92
2017-11-21T16:23:25.041Z,26.42
2017-11-21T16:25:51.256Z,25.25
2017-11-21T16:28:17.486Z,22.75
2017-11-21T16:30:44.369Z,28.67
2017-11-21T16:33:11.285Z,28.20
2017-11-21T16:35:38.350Z,26.23
2017-11-21T16:38:05.230Z,23.95
2017-11-21T16:40:31.470Z,22.37
2017-11-21T16:42:57.705Z,25.75
2017-11-21T16:45:24.201Z,23.80
2017-11-21T16:47:50.347Z,23.62
2017-11-21T16:50:16.526Z,23.35
2017-11-21T16:52:42.666Z,23.58
2017-11-21T16:55:08.781Z,28.50
2017-11-21T16:57:34.931Z,22.87
2017-11-21T17:00:01.498Z,23.10
2017-11-21T17:02:27.657Z,24.87
2017-11-21T17:04:53.890Z,25.92
2017-11-21T17:07:20.088Z,24.70
2017-11-21T17:09:47.016Z,24.30
2017-11-21T17:12:13.349Z,23.35
2017-11-21T17:14:39.494Z,22.80
2017-11-21T17:17:05.741Z,24.83
2017-11-21T17:19:31.873Z,22.52
2017-11-21T17:21:58.080Z,25.80
2017-11-21T17:24:24.607Z,24.12
2017-11-21T17:26:50.715Z,27.92
2017-11-21T17:29:17.615Z,23.10
2017-11-21T17:31:43.762Z,23.90
2017-11-21T17:34:09.938Z,25.12
2017-11-21T17:36:36.837Z,24.25
2017-11-21T17:39:03.346Z,23.55
2017-11-21T17:41:30.245Z,23.62
2017-11-21T17:43:56.389Z,22.98
2017-11-21T17:46:22.562Z,25.88
2017-11-21T17:48:48.918Z,27.48
2017-11-21T17:51:15.129Z,23.48
2017-11-21T17:53:41.291Z,23.83
2017-11-21T17:56:07.541Z,17.37
2017-11-21T17:58:33.693Z,27.90
2017-11-21T18:01:00.607Z,24.35
2017-11-21T18:03:26.773Z,21.08
2017-11-21T18:05:52.932Z,24.20
2017-11-21T18:08:19.858Z,22.37
2017-11-21T18:10:46.061Z,25.95
2017-11-21T18:13:12.197Z,24.58
2017-11-21T18:15:38.325Z,27.33
2017-11-21T18:18:04.550Z,22.87
2017-11-21T18:20:31.054Z,23.87
2017-11-21T18:22:57.230Z,26.05
2017-11-21T18:25:23.362Z,22.37
2017-11-21T18:27:50.300Z,22.60
2017-11-21T18:30:17.289Z,26.40
2017-11-21T18:32:56.594Z,29.20
2017-11-21T18:35:22.845Z,23.95
2017-11-21T18:37:49.750Z,23.45
2017-11-21T18:40:16.039Z,25.23
2017-11-21T18:42:42.330Z,28.15
2017-11-21T18:45:08.488Z,25.70
2017-11-21T18:47:34.674Z,24.23
2017-11-21T18:50:01.652Z,21.83
2017-11-21T18:52:28.513Z,19.15
2017-11-21T18:54:55.377Z,22.83
2017-11-21T18:57:21.530Z,19.65
2017-11-21T18:59:47.666Z,22.77
2017-11-21T19:02:13.906Z,23.05
2017-11-21T19:04:40.122Z,23.42
2017-11-21T19:07:07.072Z,20.83
2017-11-21T19:09:37.048Z,23.52
2017-11-21T19:12:03.188Z,22.33
2017-11-21T19:14:29.360Z,24.58
2017-11-21T19:16:55.566Z,21.67
2017-11-21T19:19:21.708Z,22.30
2017-11-21T19:21:47.853Z,25.02
2017-11-21T19:24:14.069Z,21.48
2017-11-21T19:26:40.334Z,20.75
2017-11-21T19:29:07.198Z,25.60
2017-11-21T19:31:34.054Z,21.25
2017-11-21T19:34:00.229Z,24.48
2017-11-21T19:36:26.346Z,24.25
2017-11-21T19:38:52.478Z,24.27
2017-11-21T19:41:19.370Z,22.60
2017-11-21T19:43:45.496Z,22.50
2017-11-21T19:46:11.722Z,22.40
2017-11-21T19:48:38.612Z,23.42
2017-11-21T19:51:04.742Z,27.90
2017-11-21T19:53:30.866Z,23.05
2017-11-21T19:55:57.463Z,21.00
2017-11-21T19:58:23.586Z,22.40
2017-11-21T20:00:49.732Z,24.90
2017-11-21T20:03:15.881Z,21.08
2017-11-21T20:05:42.004Z,22.08
2017-11-21T20:08:08.930Z,20.00
2017-11-21T20:10:35.038Z,22.20
2017-11-21T20:13:02.131Z,21.45
2017-11-21T20:15:28.251Z,19.10
2017-11-21T20:17:55.205Z,24.73
2017-11-21T20:20:21.372Z,18.87
2017-11-21T20:22:47.543Z,16.67
2017-11-21T20:25:13.702Z,19.35
2017-11-21T20:27:40.633Z,17.15
2017-11-21T20:30:06.782Z,20.30
2017-11-21T20:32:32.925Z,22.95
2017-11-21T20:34:59.098Z,18.30
2017-11-21T20:37:26.027Z,19.92
2017-11-21T20:39:52.162Z,20.00
2017-11-21T20:42:18.333Z,16.60
2017-11-21T20:44:44.504Z,16.10
2017-11-21T20:47:10.638Z,20.05
2017-11-21T20:49:36.877Z,15.43
2017-11-21T20:52:03.130Z,21.30
2017-11-21T20:54:29.339Z,17.92
2017-11-21T20:56:55.457Z,18.08
2017-11-21T20:59:22.611Z,18.45
2017-11-21T21:01:48.799Z,17.15
2017-11-21T21:04:14.949Z,17.30
2017-11-21T21:06:41.198Z,18.95
2017-11-21T21:09:07.394Z,17.90
2017-11-21T21:11:33.590Z,17.12
2017-11-21T21:14:00.063Z,16.58
2017-11-21T21:16:27.000Z,18.25
2017-11-21T21:18:54.062Z,21.42
2017-11-21T21:21:20.258Z,17.00
2017-11-21T21:23:46.462Z,21.25
2017-11-21T21:26:14.100Z,18.37
2017-11-21T21:28:40.283Z,20.15
2017-11-21T21:31:06.439Z,18.55
2017-11-21T21:33:32.610Z,14.05
2017-11-21T21:35:58.711Z,19.42
2017-11-21T21:38:24.837Z,18.37
2017-11-21T21:40:51.315Z,18.40
2017-11-21T21:43:17.445Z,19.65
2017-11-21T21:45:43.601Z,20.48
2017-11-21T21:48:26.211Z,21.40
2017-11-21T21:50:56.656Z,21.12
2017-11-21T21:53:22.814Z,18.92
2017-11-21T21:55:49.190Z,19.15
2017-11-21T21:58:15.370Z,19.27
2017-11-21T22:00:41.493Z,19.77
2017-11-21T22:03:07.669Z,18.65
2017-11-21T22:05:33.834Z,21.73
2017-11-21T22:08:00.004Z,19.40
2017-11-21T22:10:26.141Z,21.10
2017-11-21T22:12:52.282Z,23.98
2017-11-21T22:15:18.481Z,16.60
2017-11-21T22:17:45.397Z,16.75
2017-11-21T22:20:11.521Z,18.67
2017-11-21T22:22:37.802Z,18.65
2017-11-21T22:25:03.954Z,14.20
2017-11-21T22:27:30.899Z,16.92
2017-11-21T22:29:57.215Z,19.50
2017-11-21T22:32:24.149Z,18.30
2017-11-21T22:34:50.277Z,16.65
2017-11-21T22:37:16.405Z,15.18
2017-11-21T22:39:43.271Z,13.40
2017-11-21T22:42:09.392Z,13.27
2017-11-21T22:44:36.266Z,19.37
2017-11-21T22:47:03.138Z,14.98
2017-11-21T22:49:29.316Z,14.40
2017-11-21T22:51:55.475Z,12.90
2017-11-21T22:54:22.494Z,14.13
2017-11-21T22:56:48.629Z,13.95
2017-11-21T22:59:14.841Z,17.17
2017-11-21T23:01:41.052Z,14.80
2017-11-21T23:04:07.979Z,13.32
2017-11-21T23:06:34.117Z,11.32
2017-11-21T23:09:00.274Z,12.85
2017-11-21T23:11:26.388Z,12.10
2017-11-21T23:13:52.533Z,12.85
2017-11-21T23:16:18.665Z,15.18
2017-11-21T23:18:44.790Z,16.35
2017-11-21T23:21:10.954Z,16.17
2017-11-21T23:23:37.102Z,12.52
2017-11-21T23:26:03.250Z,12.93
2017-11-21T23:28:30.136Z,14.65
2017-11-21T23:30:56.333Z,12.88
2017-11-21T23:33:22.478Z,14.40
2017-11-21T23:35:48.597Z,15.10
2017-11-21T23:38:15.578Z,14.27
2017-11-21T23:40:42.441Z,19.87
2017-11-21T23:43:09.365Z,15.10
2017-11-21T23:45:35.621Z,14.87
2017-11-21T23:48:01.765Z,14.27
2017-11-21T23:50:27.966Z,13.85
2017-11-21T23:52:54.053Z,12.63
2017-11-21T23:55:20.154Z,12.20
2017-11-21T23:57:52.203Z,14.18
